createdAt,value
2019-03-01T00:03:08.800Z,14.73
2019-03-01T00:08:16.358Z,19.93
2019-03-01T00:13:59.348Z,14.37
2019-03-01T00:19:47.221Z,9.83
2019-03-01T00:25:05.515Z,12.33
2019-03-01T00:30:45.441Z,16.03
2019-03-01T00:36:18.066Z,10.37
2019-03-01T00:42:02.790Z,9.97
2019-03-01T00:47:07.967Z,7.83
2019-03-01T00:52:16.181Z,11.20
2019-03-01T00:57:21.355Z,9.23
2019-03-01T01:02:26.818Z,14.90
2019-03-01T01:07:31.840Z,11.87
2019-03-01T01:12:36.995Z,10.77
2019-03-01T01:17:42.696Z,9.00
2019-03-01T01:22:47.792Z,9.03
2019-03-01T01:27:52.843Z,12.93
2019-03-01T01:32:57.941Z,11.40
2019-03-01T01:38:02.863Z,8.33
2019-03-01T01:43:08.133Z,9.77
2019-03-01T01:48:14.416Z,14.97
2019-03-01T01:53:19.576Z,8.43
2019-03-01T01:58:24.628Z,8.43
2019-03-01T02:03:29.785Z,6.63
2019-03-01T02:08:34.573Z,11.67
2019-03-01T02:13:39.593Z,11.40
2019-03-01T02:18:46.175Z,11.03
2019-03-01T02:23:51.095Z,11.00
2019-03-01T02:28:56.322Z,10.20
2019-03-01T02:34:01.420Z,9.37
2019-03-01T02:39:06.415Z,14.53
2019-03-01T02:44:11.890Z,12.43
2019-03-01T02:49:16.845Z,11.50
2019-03-01T02:54:22.021Z,10.90
2019-03-01T02:59:26.001Z,14.00
2019-03-01T03:04:31.155Z,13.73
2019-03-01T03:09:35.934Z,10.70
2019-03-01T03:14:40.998Z,11.93
2019-03-01T03:19:46.358Z,7.77
2019-03-01T03:24:51.131Z,10.07
2019-03-01T03:29:56.686Z,7.27
2019-03-01T03:35:01.864Z,13.63
2019-03-01T03:40:08.675Z,14.43
2019-03-01T03:45:14.314Z,11.10
2019-03-01T03:50:19.207Z,10.10
2019-03-01T03:55:24.411Z,17.83
2019-03-01T04:00:29.001Z,11.20
2019-03-01T04:05:32.554Z,11.10
2019-03-01T04:10:37.002Z,14.47
2019-03-01T04:15:42.380Z,12.30
2019-03-01T04:20:47.041Z,14.80
2019-03-01T04:25:52.119Z,13.07
2019-03-01T04:30:57.519Z,13.50
2019-03-01T04:36:02.330Z,13.20
2019-03-01T04:41:08.050Z,13.17
2019-03-01T04:46:13.030Z,15.53
2019-03-01T04:51:17.578Z,14.50
2019-03-01T04:56:21.900Z,15.80
2019-03-01T05:01:26.362Z,15.13
2019-03-01T05:06:30.662Z,14.97
2019-03-01T05:11:35.685Z,12.40
2019-03-01T05:16:40.212Z,12.87
2019-03-01T05:21:44.430Z,10.60
2019-03-01T05:26:49.032Z,10.67
2019-03-01T05:31:52.514Z,13.90
2019-03-01T05:36:58.068Z,10.43
2019-03-01T05:42:03.495Z,9.70
2019-03-01T05:47:08.858Z,12.53
2019-03-01T05:52:13.921Z,10.33
2019-03-01T05:57:19.013Z,16.17
2019-03-01T06:02:37.280Z,17.37
2019-03-01T06:08:25.827Z,10.37
2019-03-01T06:14:05.271Z,12.60
2019-03-01T06:19:33.854Z,10.83
2019-03-01T06:24:50.426Z,11.23
2019-03-01T06:30:09.863Z,11.50
2019-03-01T06:35:48.327Z,8.90
2019-03-01T06:41:31.990Z,12.90
2019-03-01T06:47:05.634Z,11.10
2019-03-01T06:52:10.107Z,11.97
2019-03-01T06:57:14.685Z,12.47
2019-03-01T07:02:25.935Z,15.57
2019-03-01T07:07:31.350Z,15.00
2019-03-01T07:12:36.859Z,14.87
2019-03-01T07:17:42.938Z,13.93
2019-03-01T07:22:48.303Z,16.50
2019-03-01T07:27:53.628Z,15.37
2019-03-01T07:32:58.648Z,14.60
2019-03-01T07:38:04.170Z,14.77
2019-03-01T07:43:09.162Z,11.23
2019-03-01T07:48:14.411Z,13.67
2019-03-01T07:53:19.415Z,12.07
2019-03-01T07:58:25.724Z,11.33
2019-03-01T08:03:32.593Z,8.33
2019-03-01T08:08:39.094Z,12.20
2019-03-01T08:13:45.272Z,8.83
2019-03-01T08:18:50.728Z,10.60
2019-03-01T08:23:55.881Z,8.63
2019-03-01T08:29:01.075Z,11.93
2019-03-01T08:34:07.050Z,10.00
2019-03-01T08:39:12.684Z,10.07
2019-03-01T08:44:19.406Z,11.53
2019-03-01T08:49:24.748Z,16.60
2019-03-01T08:54:31.112Z,8.50
2019-03-01T08:59:36.809Z,8.10
2019-03-01T09:04:50.720Z,6.47
2019-03-01T09:09:50.365Z,7.50
2019-03-01T09:14:55.484Z,6.17
2019-03-01T09:20:02.460Z,6.17
2019-03-01T09:25:10.132Z,6.93
2019-03-01T09:30:17.907Z,7.87
2019-03-01T09:35:46.547Z,7.77
2019-03-01T09:40:52.002Z,7.13
2019-03-01T09:45:56.979Z,10.43
2019-03-01T09:51:07.341Z,7.13
2019-03-01T09:56:12.947Z,8.30
2019-03-01T10:01:19.399Z,7.40
2019-03-01T10:06:24.601Z,6.30
2019-03-01T10:11:29.140Z,9.70
2019-03-01T10:16:33.604Z,7.53
2019-03-01T10:21:38.248Z,6.27
2019-03-01T10:26:42.682Z,7.53
2019-03-01T10:31:47.127Z,4.50
2019-03-01T10:36:51.703Z,2.73
2019-03-01T10:41:56.930Z,3.30
2019-03-01T10:47:01.465Z,2.70
2019-03-01T10:52:05.856Z,2.83
2019-03-01T10:57:11.259Z,3.07
2019-03-01T11:02:15.641Z,5.47
2019-03-01T11:07:21.130Z,9.23
2019-03-01T11:12:26.059Z,11.23
2019-03-01T11:17:32.188Z,8.33
2019-03-01T11:22:37.613Z,4.80
2019-03-01T11:27:42.912Z,3.17
2019-03-01T11:32:48.053Z,3.67
2019-03-01T11:37:54.034Z,3.93
2019-03-01T11:42:59.003Z,5.83
2019-03-01T11:48:04.852Z,5.33
2019-03-01T11:53:10.938Z,6.00
2019-03-01T11:58:16.534Z,9.73
2019-03-01T12:03:32.019Z,11.33
2019-03-01T12:08:37.687Z,11.90
2019-03-01T12:13:43.200Z,14.80
2019-03-01T12:18:50.176Z,17.10
2019-03-01T12:23:56.174Z,20.83
2019-03-01T12:29:01.238Z,20.33
2019-03-01T12:34:06.525Z,22.93
2019-03-01T12:39:12.240Z,24.27
2019-03-01T12:44:19.177Z,28.57
2019-03-01T12:49:24.999Z,23.57
2019-03-01T12:54:30.278Z,26.27
2019-03-01T12:59:35.900Z,23.33
2019-03-01T13:04:40.849Z,19.17
2019-03-01T13:09:46.693Z,17.40
2019-03-01T13:14:52.387Z,26.77
2019-03-01T13:20:01.029Z,32.33
2019-03-01T13:25:06.414Z,38.17
2019-03-01T13:30:14.455Z,35.17
2019-03-01T13:35:22.225Z,38.87
2019-03-01T13:40:27.541Z,38.47
2019-03-01T13:45:33.486Z,37.83
2019-03-01T13:50:41.583Z,43.53
2019-03-01T13:55:46.175Z,44.67
2019-03-01T14:00:51.565Z,43.40
2019-03-01T14:05:56.241Z,47.23
2019-03-01T14:11:00.848Z,45.50
2019-03-01T14:16:07.089Z,49.40
2019-03-01T14:21:11.546Z,48.60
2019-03-01T14:26:18.477Z,54.50
2019-03-01T14:31:22.040Z,63.50
2019-03-01T14:36:26.551Z,70.33
2019-03-01T14:41:34.210Z,70.50
2019-03-01T14:46:37.135Z,71.20
2019-03-01T14:51:46.535Z,74.93
2019-03-01T14:56:54.759Z,79.03
2019-03-01T15:02:43.313Z,83.43
2019-03-01T15:07:48.451Z,77.13
2019-03-01T15:12:57.591Z,77.30
2019-03-01T15:18:00.929Z,82.10
2019-03-01T15:23:17.149Z,85.50
2019-03-01T15:28:23.043Z,82.60
2019-03-01T15:33:28.574Z,75.93
2019-03-01T15:38:34.009Z,75.83
2019-03-01T15:43:38.941Z,71.77
2019-03-01T15:48:44.150Z,68.57
2019-03-01T15:53:49.449Z,69.23
2019-03-01T15:58:55.439Z,73.60
2019-03-01T16:04:00.809Z,62.37
2019-03-01T16:09:13.724Z,68.37
2019-03-01T16:14:20.996Z,64.60
2019-03-01T16:19:27.342Z,70.23
2019-03-01T16:24:32.011Z,71.90
2019-03-01T16:29:38.839Z,69.30
2019-03-01T16:34:44.149Z,68.60
2019-03-01T16:39:50.546Z,63.23
2019-03-01T16:44:55.685Z,66.33
2019-03-01T16:50:02.908Z,68.13
2019-03-01T16:55:15.555Z,70.17
2019-03-01T17:00:20.753Z,66.13
2019-03-01T17:05:26.181Z,66.13
2019-03-01T17:10:31.375Z,76.87
2019-03-01T17:15:36.349Z,69.93
2019-03-01T17:20:39.935Z,75.60
2019-03-01T17:25:44.698Z,71.17
2019-03-01T17:30:50.849Z,73.83
2019-03-01T17:35:53.664Z,72.20
2019-03-01T17:40:57.357Z,67.20
2019-03-01T17:46:02.533Z,67.00
2019-03-01T17:51:06.946Z,69.70
2019-03-01T17:56:10.721Z,66.57
2019-03-01T18:01:14.646Z,67.87
2019-03-01T18:06:19.597Z,67.97
2019-03-01T18:11:26.074Z,70.37
2019-03-01T18:16:31.118Z,67.93
2019-03-01T18:21:35.403Z,64.90
2019-03-01T18:26:40.996Z,66.90
2019-03-01T18:31:45.709Z,66.53
2019-03-01T18:36:49.973Z,58.73
2019-03-01T18:41:54.139Z,60.03
2019-03-01T18:46:58.450Z,63.13
2019-03-01T18:52:02.322Z,62.33
2019-03-01T18:57:08.646Z,62.00
2019-03-01T19:02:14.143Z,54.60
2019-03-01T19:07:19.343Z,64.10
2019-03-01T19:12:24.542Z,61.27
2019-03-01T19:17:29.904Z,58.23
2019-03-01T19:22:35.190Z,58.87
2019-03-01T19:27:41.616Z,67.83
2019-03-01T19:32:47.310Z,59.43
2019-03-01T19:37:53.260Z,68.93
2019-03-01T19:42:58.572Z,64.57
2019-03-01T19:48:03.597Z,64.17
2019-03-01T19:53:12.404Z,63.37
2019-03-01T19:58:17.565Z,69.30
2019-03-01T20:03:22.646Z,64.80
2019-03-01T20:08:29.722Z,68.30
2019-03-01T20:13:34.943Z,80.80
2019-03-01T20:18:41.727Z,79.10
2019-03-01T20:23:47.372Z,42.63
2019-03-01T20:28:54.115Z,25.60
2019-03-01T20:34:01.867Z,23.60
2019-03-01T20:39:07.168Z,26.20
2019-03-01T20:44:14.699Z,30.10
2019-03-01T20:49:20.795Z,29.90
2019-03-01T20:54:26.995Z,23.60
2019-03-01T20:59:32.448Z,20.63
2019-03-01T21:04:40.434Z,19.90
2019-03-01T21:09:44.562Z,21.77
2019-03-01T21:14:50.012Z,32.10
2019-03-01T21:19:55.317Z,35.23
2019-03-01T21:25:03.135Z,31.20
2019-03-01T21:30:12.281Z,39.67
2019-03-01T21:35:18.967Z,37.40
2019-03-01T21:40:24.218Z,37.17
2019-03-01T21:45:27.814Z,39.60
2019-03-01T21:50:31.223Z,42.03
2019-03-01T21:55:37.156Z,37.17
2019-03-01T22:00:42.390Z,35.60
2019-03-01T22:05:48.577Z,37.67
2019-03-01T22:10:54.411Z,32.97
2019-03-01T22:16:01.061Z,37.27
2019-03-01T22:21:06.702Z,35.63
2019-03-01T22:26:13.619Z,36.53
2019-03-01T22:31:18.492Z,41.83
2019-03-01T22:36:22.792Z,42.93
2019-03-01T22:41:26.938Z,36.40
2019-03-01T22:46:30.911Z,35.33
2019-03-01T22:51:35.269Z,38.57
2019-03-01T22:56:39.669Z,34.67
2019-03-01T23:01:48.332Z,37.10
2019-03-01T23:06:53.180Z,39.37
2019-03-01T23:11:57.872Z,37.30
2019-03-01T23:17:01.950Z,41.43
2019-03-01T23:22:07.583Z,41.17
2019-03-01T23:27:13.856Z,39.33
2019-03-01T23:32:20.001Z,38.90
2019-03-01T23:37:24.672Z,42.70
2019-03-01T23:42:29.960Z,41.93
2019-03-01T23:47:38.290Z,42.70
2019-03-01T23:53:00.656Z,44.47
2019-03-01T23:58:06.395Z,39.60
